createdAt,value
2019-04-29T00:01:41.039Z,17.87
2019-04-29T00:04:14.115Z,19.12
2019-04-29T00:06:47.928Z,18.95
2019-04-29T00:09:22.019Z,18.80
2019-04-29T00:11:55.455Z,18.62
2019-04-29T00:14:30.602Z,16.60
2019-04-29T00:17:13.087Z,17.05
2019-04-29T00:19:55.387Z,19.23
2019-04-29T00:22:29.109Z,19.48
2019-04-29T00:25:02.495Z,19.00
2019-04-29T00:27:36.506Z,19.75
2019-04-29T00:30:13.891Z,18.90
2019-04-29T00:32:46.911Z,20.65
2019-04-29T00:35:20.500Z,21.60
2019-04-29T00:38:27.683Z,22.00
2019-04-29T00:41:22.997Z,24.07
2019-04-29T00:44:01.332Z,22.20
2019-04-29T00:46:34.801Z,24.20
2019-04-29T00:49:07.361Z,22.10
2019-04-29T00:51:43.325Z,23.10
2019-04-29T00:54:26.322Z,21.60
2019-04-29T00:56:58.873Z,21.80
2019-04-29T00:59:31.943Z,24.47
2019-04-29T01:02:06.166Z,26.00
2019-04-29T01:04:39.941Z,23.10
2019-04-29T01:07:12.977Z,24.70
2019-04-29T01:09:46.855Z,22.90
2019-04-29T01:12:20.770Z,23.40
2019-04-29T01:14:54.046Z,23.40
2019-04-29T01:17:28.080Z,21.23
2019-04-29T01:20:01.759Z,20.50
2019-04-29T01:22:35.301Z,23.25
2019-04-29T01:25:08.580Z,22.17
2019-04-29T01:27:48.767Z,21.70
2019-04-29T01:30:50.362Z,22.32
2019-04-29T01:33:23.899Z,21.85
2019-04-29T01:36:10.697Z,22.73
2019-04-29T01:38:43.496Z,22.55
2019-04-29T01:41:20.489Z,22.82
2019-04-29T01:44:04.496Z,23.85
2019-04-29T01:46:37.404Z,22.50
2019-04-29T01:49:10.281Z,24.63
2019-04-29T01:51:43.342Z,23.27
2019-04-29T01:54:16.329Z,25.35
2019-04-29T01:56:49.666Z,21.60
2019-04-29T01:59:23.028Z,23.67
2019-04-29T02:01:56.019Z,24.02
2019-04-29T02:04:29.042Z,23.02
2019-04-29T02:07:02.926Z,23.10
2019-04-29T02:09:46.561Z,24.87
2019-04-29T02:12:20.194Z,25.90
2019-04-29T02:14:53.981Z,22.22
2019-04-29T02:17:27.881Z,24.57
2019-04-29T02:20:01.482Z,24.05
2019-04-29T02:22:42.804Z,25.97
2019-04-29T02:25:20.122Z,23.40
2019-04-29T02:27:53.519Z,21.40
2019-04-29T02:30:41.138Z,23.83
2019-04-29T02:33:13.739Z,25.23
2019-04-29T02:35:47.151Z,24.52
2019-04-29T02:38:41.812Z,26.73
2019-04-29T02:41:22.282Z,21.73
2019-04-29T02:43:57.634Z,28.20
2019-04-29T02:46:30.629Z,29.32
2019-04-29T02:49:03.647Z,30.57
2019-04-29T02:51:48.650Z,33.02
2019-04-29T02:54:23.096Z,35.30
2019-04-29T02:57:02.276Z,32.65
2019-04-29T02:59:39.640Z,34.65
2019-04-29T03:02:29.108Z,35.50
2019-04-29T03:05:20.209Z,33.20
2019-04-29T03:07:53.145Z,33.10
2019-04-29T03:10:26.223Z,31.70
2019-04-29T03:12:59.939Z,31.05
2019-04-29T03:15:33.828Z,31.07
2019-04-29T03:18:06.823Z,29.40
2019-04-29T03:20:53.657Z,32.48
2019-04-29T03:23:27.247Z,29.25
2019-04-29T03:25:59.905Z,28.83
2019-04-29T03:28:32.688Z,34.53
2019-04-29T03:31:05.101Z,32.03
2019-04-29T03:33:38.486Z,31.75
2019-04-29T03:36:11.885Z,31.90
2019-04-29T03:38:44.975Z,33.42
2019-04-29T03:41:18.449Z,31.40
2019-04-29T03:43:51.736Z,30.95
2019-04-29T03:46:25.121Z,31.15
2019-04-29T03:48:57.634Z,31.85
2019-04-29T03:51:30.610Z,33.18
2019-04-29T03:54:03.714Z,32.67
2019-04-29T03:56:37.109Z,35.83
2019-04-29T03:59:10.728Z,33.33
2019-04-29T04:01:52.283Z,33.60
2019-04-29T04:04:44.816Z,34.65
2019-04-29T04:07:36.128Z,37.15
2019-04-29T04:10:09.443Z,36.50
2019-04-29T04:12:42.468Z,37.00
2019-04-29T04:15:15.214Z,38.15
2019-04-29T04:17:57.537Z,36.68
2019-04-29T04:20:31.090Z,37.35
2019-04-29T04:23:04.163Z,36.68
2019-04-29T04:25:37.480Z,37.70
2019-04-29T04:28:10.161Z,38.08
2019-04-29T04:30:44.066Z,40.98
2019-04-29T04:33:17.295Z,42.60
2019-04-29T04:35:49.874Z,41.68
2019-04-29T04:38:22.732Z,39.10
2019-04-29T04:41:03.253Z,40.23
2019-04-29T04:43:35.869Z,37.93
2019-04-29T04:46:09.677Z,39.05
2019-04-29T04:48:42.744Z,41.05
2019-04-29T04:51:16.131Z,42.70
2019-04-29T04:53:49.836Z,38.85
2019-04-29T04:56:23.232Z,39.23
2019-04-29T04:58:56.191Z,39.85
2019-04-29T05:01:29.259Z,38.25
2019-04-29T05:04:02.233Z,38.48
2019-04-29T05:06:35.529Z,36.63
2019-04-29T05:09:08.921Z,38.80
2019-04-29T05:11:42.796Z,33.67
2019-04-29T05:14:15.713Z,30.12
2019-04-29T05:16:49.128Z,26.52
2019-04-29T05:19:22.849Z,22.98
2019-04-29T05:21:56.553Z,20.92
2019-04-29T05:24:32.201Z,18.00
2019-04-29T05:27:04.883Z,18.10
2019-04-29T05:29:38.360Z,17.75
2019-04-29T05:32:12.191Z,18.48
2019-04-29T05:34:48.282Z,18.17
2019-04-29T05:37:30.221Z,17.62
2019-04-29T05:40:04.095Z,17.77
2019-04-29T05:42:37.038Z,17.50
2019-04-29T05:45:21.699Z,18.02
2019-04-29T05:48:05.498Z,18.32
2019-04-29T05:50:52.038Z,17.73
2019-04-29T05:53:33.001Z,19.67
2019-04-29T05:56:06.502Z,19.62
2019-04-29T05:58:40.297Z,20.35
2019-04-29T06:01:18.497Z,21.40
2019-04-29T06:03:52.043Z,20.55
2019-04-29T06:06:25.505Z,20.88
2019-04-29T06:08:58.584Z,21.90
2019-04-29T06:11:32.255Z,19.95
2019-04-29T06:14:05.790Z,21.97
2019-04-29T06:16:38.696Z,21.40
2019-04-29T06:19:13.321Z,20.82
2019-04-29T06:21:46.750Z,20.27
2019-04-29T06:24:20.116Z,20.32
2019-04-29T06:26:53.213Z,19.55
2019-04-29T06:29:27.053Z,19.95
2019-04-29T06:32:00.006Z,19.10
2019-04-29T06:34:35.530Z,17.95
2019-04-29T06:37:06.901Z,19.55
2019-04-29T06:39:40.393Z,18.95
2019-04-29T06:42:15.450Z,18.32
2019-04-29T06:44:49.320Z,19.07
2019-04-29T06:47:22.664Z,17.07
2019-04-29T06:49:55.704Z,17.23
2019-04-29T06:52:29.519Z,18.60
2019-04-29T06:55:02.938Z,17.50
2019-04-29T06:57:37.354Z,16.60
2019-04-29T07:00:10.635Z,16.75
2019-04-29T07:02:45.562Z,16.35
2019-04-29T07:05:18.657Z,17.55
2019-04-29T07:07:51.999Z,16.10
2019-04-29T07:10:27.135Z,16.45
2019-04-29T07:13:00.702Z,17.40
2019-04-29T07:15:34.133Z,15.35
2019-04-29T07:18:06.793Z,17.50
2019-04-29T07:20:39.748Z,16.32
2019-04-29T07:23:13.787Z,17.55
2019-04-29T07:25:46.782Z,17.62
2019-04-29T07:28:20.750Z,16.48
2019-04-29T07:31:02.645Z,16.25
2019-04-29T07:33:28.373Z,15.58
2019-04-29T07:36:10.884Z,16.05
2019-04-29T07:38:41.635Z,16.05
2019-04-29T07:41:14.380Z,14.98
2019-04-29T07:43:48.334Z,15.85
2019-04-29T07:46:56.418Z,16.00
2019-04-29T07:49:18.805Z,15.15
2019-04-29T07:51:52.823Z,15.18
2019-04-29T07:54:25.869Z,16.15
2019-04-29T07:56:59.280Z,14.78
2019-04-29T07:59:33.850Z,15.75
2019-04-29T08:02:07.701Z,15.30
2019-04-29T08:04:40.901Z,13.35
2019-04-29T08:07:14.945Z,15.15
2019-04-29T08:09:48.394Z,15.00
2019-04-29T08:12:22.289Z,15.10
2019-04-29T08:14:58.492Z,14.83
2019-04-29T08:17:32.633Z,13.30
2019-04-29T08:20:06.521Z,14.20
2019-04-29T08:22:43.267Z,13.50
2019-04-29T08:25:16.974Z,13.73
2019-04-29T08:27:49.553Z,12.77
2019-04-29T08:30:22.936Z,12.27
2019-04-29T08:32:58.917Z,14.47
2019-04-29T08:35:36.427Z,13.70
2019-04-29T08:38:07.166Z,13.10
2019-04-29T08:40:45.223Z,12.87
2019-04-29T08:43:44.449Z,11.87
2019-04-29T08:46:25.260Z,10.55
2019-04-29T08:49:01.054Z,11.05
2019-04-29T08:51:33.444Z,10.25
2019-04-29T08:54:07.117Z,11.97
2019-04-29T08:56:42.507Z,9.83
2019-04-29T08:59:14.745Z,10.15
2019-04-29T09:01:47.858Z,10.13
2019-04-29T09:04:22.439Z,10.70
2019-04-29T09:06:55.915Z,9.83
2019-04-29T09:09:29.808Z,8.60
2019-04-29T09:12:03.090Z,7.87
2019-04-29T09:14:36.773Z,7.23
2019-04-29T09:17:20.128Z,7.73
2019-04-29T09:19:46.244Z,7.87
2019-04-29T09:22:21.648Z,7.57
2019-04-29T09:25:12.283Z,8.87
2019-04-29T09:27:48.244Z,6.90
2019-04-29T09:30:21.484Z,6.40
2019-04-29T09:32:54.538Z,6.40
2019-04-29T09:35:28.895Z,6.97
2019-04-29T09:38:02.174Z,6.93
2019-04-29T09:40:40.139Z,6.70
2019-04-29T09:43:43.140Z,5.60
2019-04-29T09:46:20.620Z,6.30
2019-04-29T09:48:54.513Z,6.10
2019-04-29T09:51:29.689Z,5.10
2019-04-29T09:54:02.580Z,4.60
2019-04-29T09:56:36.601Z,5.47
2019-04-29T09:59:26.261Z,4.90
2019-04-29T10:02:33.076Z,5.40
2019-04-29T10:05:24.604Z,4.50
2019-04-29T10:07:57.281Z,4.70
2019-04-29T10:10:30.334Z,4.67
2019-04-29T10:13:03.737Z,4.80
2019-04-29T10:15:51.722Z,4.10
2019-04-29T10:18:53.553Z,4.30
2019-04-29T10:21:27.280Z,4.40
2019-04-29T10:24:00.077Z,4.30
2019-04-29T10:26:33.534Z,4.60
2019-04-29T10:29:13.732Z,4.20
2019-04-29T10:31:46.706Z,3.90
2019-04-29T10:34:19.666Z,4.27
2019-04-29T10:36:53.626Z,4.00
2019-04-29T10:40:10.891Z,4.40
2019-04-29T10:42:42.906Z,3.83
2019-04-29T10:45:25.581Z,4.00
2019-04-29T10:48:08.803Z,5.30
2019-04-29T10:50:42.286Z,4.73
2019-04-29T10:53:17.361Z,4.00
2019-04-29T10:55:50.760Z,5.00
2019-04-29T10:58:30.169Z,4.60
2019-04-29T11:02:01.395Z,3.83
2019-04-29T11:04:36.562Z,4.33
2019-04-29T11:07:26.569Z,3.90
2019-04-29T11:09:58.677Z,4.40
2019-04-29T11:12:31.633Z,4.33
2019-04-29T11:15:04.994Z,3.50
2019-04-29T11:17:39.808Z,4.50
2019-04-29T11:20:15.774Z,5.93
2019-04-29T11:22:56.829Z,5.33
2019-04-29T11:25:53.030Z,5.30
2019-04-29T11:28:27.157Z,4.57
2019-04-29T11:31:00.991Z,5.20
2019-04-29T11:33:44.690Z,4.80
2019-04-29T11:36:19.418Z,5.65
2019-04-29T11:38:53.406Z,6.13
2019-04-29T11:41:29.951Z,5.95
2019-04-29T11:44:04.207Z,6.75
2019-04-29T11:46:37.190Z,7.53
2019-04-29T11:49:11.729Z,7.70
2019-04-29T11:52:07.650Z,7.53
2019-04-29T11:54:21.639Z,8.18
2019-04-29T11:56:54.951Z,9.40
2019-04-29T11:59:46.391Z,9.90
2019-04-29T12:02:44.674Z,9.10
2019-04-29T12:05:25.458Z,8.60
2019-04-29T12:07:58.919Z,8.85
2019-04-29T12:10:32.404Z,8.93
2019-04-29T12:13:08.366Z,8.43
2019-04-29T12:15:55.499Z,9.35
2019-04-29T12:18:34.153Z,10.58
2019-04-29T12:21:15.925Z,10.53
2019-04-29T12:23:52.037Z,10.53
2019-04-29T12:26:25.084Z,10.68
2019-04-29T12:28:58.976Z,12.03
2019-04-29T12:31:54.781Z,10.55
2019-04-29T12:34:46.404Z,12.82
2019-04-29T12:37:39.187Z,12.98
2019-04-29T12:40:30.161Z,12.18
2019-04-29T12:43:34.893Z,12.43
2019-04-29T12:46:12.910Z,12.80
2019-04-29T12:48:45.912Z,13.90
2019-04-29T12:51:19.675Z,13.00
2019-04-29T12:53:52.768Z,14.60
2019-04-29T12:56:34.190Z,15.68
2019-04-29T12:59:08.215Z,14.63
2019-04-29T13:01:55.875Z,14.35
2019-04-29T13:04:45.126Z,17.17
2019-04-29T13:07:34.665Z,16.82
2019-04-29T13:10:14.448Z,17.80
2019-04-29T13:12:48.181Z,18.25
2019-04-29T13:15:39.650Z,16.80
2019-04-29T13:18:23.229Z,16.65
2019-04-29T13:20:53.865Z,16.52
2019-04-29T13:23:34.866Z,17.25
2019-04-29T13:26:01.746Z,18.32
2019-04-29T13:28:51.741Z,20.75
2019-04-29T13:31:10.270Z,19.45
2019-04-29T13:33:45.980Z,17.42
2019-04-29T13:36:25.819Z,20.12
2019-04-29T13:38:56.248Z,20.60
2019-04-29T13:41:30.090Z,20.00
2019-04-29T13:44:05.787Z,21.52
2019-04-29T13:46:56.671Z,20.85
2019-04-29T13:49:37.246Z,21.20
2019-04-29T13:52:11.095Z,21.93
2019-04-29T13:54:44.686Z,24.02
2019-04-29T13:57:18.031Z,23.38
2019-04-29T14:00:04.027Z,23.70
2019-04-29T14:02:59.880Z,22.40
2019-04-29T14:05:36.697Z,21.65
2019-04-29T14:08:07.451Z,22.05
2019-04-29T14:10:41.434Z,21.82
2019-04-29T14:13:17.646Z,24.43
2019-04-29T14:15:49.157Z,23.00
2019-04-29T14:18:22.526Z,21.80
2019-04-29T14:20:55.688Z,23.60
2019-04-29T14:23:29.098Z,22.22
2019-04-29T14:26:02.072Z,21.07
2019-04-29T14:28:35.648Z,21.87
2019-04-29T14:31:08.745Z,22.95
2019-04-29T14:33:50.985Z,23.90
2019-04-29T14:36:24.652Z,24.07
2019-04-29T14:38:59.837Z,24.63
2019-04-29T14:41:35.113Z,21.48
2019-04-29T14:44:42.542Z,21.55
2019-04-29T14:47:32.892Z,20.40
2019-04-29T14:50:10.579Z,20.85
2019-04-29T14:52:44.790Z,24.15
2019-04-29T14:55:20.061Z,20.85
2019-04-29T14:57:53.786Z,22.87
2019-04-29T15:00:44.541Z,22.05
2019-04-29T15:03:18.771Z,21.40
2019-04-29T15:05:52.357Z,22.52
2019-04-29T15:08:26.438Z,24.32
2019-04-29T15:11:04.124Z,25.40
2019-04-29T15:13:34.759Z,25.10
2019-04-29T15:16:15.523Z,23.62
2019-04-29T15:19:12.669Z,23.73
2019-04-29T15:21:49.634Z,24.43
2019-04-29T15:24:22.682Z,22.13
2019-04-29T15:26:56.000Z,22.85
2019-04-29T15:29:29.314Z,21.55
2019-04-29T15:32:02.113Z,21.82
2019-04-29T15:34:35.424Z,20.15
2019-04-29T15:37:08.688Z,21.00
2019-04-29T15:39:46.054Z,20.55
2019-04-29T15:42:17.023Z,21.75
2019-04-29T15:44:51.592Z,23.50
2019-04-29T15:47:30.640Z,20.23
2019-04-29T15:50:01.821Z,20.85
2019-04-29T15:52:35.136Z,18.90
2019-04-29T15:55:08.707Z,20.52
2019-04-29T15:57:49.419Z,21.17
2019-04-29T16:00:21.966Z,20.35
2019-04-29T16:02:53.007Z,20.10
2019-04-29T16:06:11.177Z,21.35
2019-04-29T16:08:33.877Z,21.12
2019-04-29T16:11:44.598Z,21.80
2019-04-29T16:14:21.953Z,20.72
2019-04-29T16:16:59.380Z,22.65
2019-04-29T16:19:32.927Z,20.65
2019-04-29T16:22:06.890Z,20.05
2019-04-29T16:24:40.261Z,21.65
2019-04-29T16:27:14.834Z,21.42
2019-04-29T16:29:51.728Z,22.22
2019-04-29T16:32:36.588Z,21.75
2019-04-29T16:35:10.694Z,20.82
2019-04-29T16:37:43.825Z,22.82
2019-04-29T16:40:17.341Z,20.12
2019-04-29T16:42:57.955Z,21.65
2019-04-29T16:45:57.017Z,22.73
2019-04-29T16:48:31.041Z,20.97
2019-04-29T16:51:06.666Z,24.50
2019-04-29T16:53:39.657Z,22.45
2019-04-29T16:56:16.255Z,22.50
2019-04-29T16:58:48.692Z,21.45
2019-04-29T17:01:22.826Z,22.37
2019-04-29T17:04:04.648Z,21.20
2019-04-29T17:06:35.873Z,20.17
2019-04-29T17:09:26.187Z,18.67
2019-04-29T17:12:00.462Z,17.45
2019-04-29T17:15:00.873Z,18.30
2019-04-29T17:17:14.553Z,15.95
2019-04-29T17:19:48.557Z,17.25
2019-04-29T17:22:25.974Z,15.90
2019-04-29T17:24:57.378Z,17.80
2019-04-29T17:27:45.382Z,16.55
2019-04-29T17:30:54.287Z,16.27
2019-04-29T17:33:48.729Z,18.25
2019-04-29T17:36:18.537Z,17.55
2019-04-29T17:38:49.873Z,15.75
